sensor_id;sensor_type;location;lat;lon;timestamp;P1;durP1;ratioP1;P2;durP2;ratioP2
9166;SDS011;4618;48.818;9.088;2023-04-20T00:00:55;5.50;;;4.10;;
9166;SDS011;4618;48.818;9.088;2023-04-20T00:03:21;5.70;;;4.17;;
9166;SDS011;4618;48.818;9.088;2023-04-20T00:05:47;8.23;;;4.30;;
9166;SDS011;4618;48.818;9.088;2023-04-20T00:08:14;5.17;;;4.67;;
9166;SDS011;4618;48.818;9.088;2023-04-20T00:10:41;6.60;;;4.70;;
9166;SDS011;4618;48.818;9.088;2023-04-20T00:13:07;6.73;;;5.63;;
9166;SDS011;4618;48.818;9.088;2023-04-20T00:15:33;6.43;;;5.83;;
9166;SDS011;4618;48.818;9.088;2023-04-20T00:17:59;6.10;;;5.43;;
9166;SDS011;4618;48.818;9.088;2023-04-20T00:20:25;7.87;;;5.60;;
9166;SDS011;4618;48.818;9.088;2023-04-20T00:22:51;6.60;;;5.47;;
9166;SDS011;4618;48.818;9.088;2023-04-20T00:25:17;7.37;;;4.90;;
9166;SDS011;4618;48.818;9.088;2023-04-20T00:27:43;8.73;;;4.87;;
9166;SDS011;4618;48.818;9.088;2023-04-20T00:30:09;9.13;;;6.30;;
9166;SDS011;4618;48.818;9.088;2023-04-20T00:32:35;5.77;;;5.17;;
9166;SDS011;4618;48.818;9.088;2023-04-20T00:35:01;7.30;;;5.20;;
9166;SDS011;4618;48.818;9.088;2023-04-20T00:37:27;6.43;;;5.43;;
9166;SDS011;4618;48.818;9.088;2023-04-20T00:39:54;10.13;;;5.07;;
9166;SDS011;4618;48.818;9.088;2023-04-20T00:42:20;5.20;;;4.70;;
9166;SDS011;4618;48.818;9.088;2023-04-20T00:44:46;5.87;;;4.67;;
9166;SDS011;4618;48.818;9.088;2023-04-20T00:47:12;5.70;;;4.90;;
9166;SDS011;4618;48.818;9.088;2023-04-20T00:49:37;8.40;;;5.00;;
9166;SDS011;4618;48.818;9.088;2023-04-20T00:52:04;5.73;;;5.13;;
9166;SDS011;4618;48.818;9.088;2023-04-20T00:54:30;5.60;;;5.07;;
9166;SDS011;4618;48.818;9.088;2023-04-20T00:56:56;6.77;;;4.87;;
9166;SDS011;4618;48.818;9.088;2023-04-20T00:59:23;6.53;;;5.57;;
9166;SDS011;4618;48.818;9.088;2023-04-20T01:01:49;7.50;;;4.80;;
9166;SDS011;4618;48.818;9.088;2023-04-20T01:04:15;6.10;;;5.00;;
9166;SDS011;4618;48.818;9.088;2023-04-20T01:06:41;5.03;;;4.53;;
9166;SDS011;4618;48.818;9.088;2023-04-20T01:09:07;5.50;;;4.70;;
9166;SDS011;4618;48.818;9.088;2023-04-20T01:11:34;6.20;;;4.83;;
9166;SDS011;4618;48.818;9.088;2023-04-20T01:14:00;4.97;;;4.47;;
9166;SDS011;4618;48.818;9.088;2023-04-20T01:16:26;5.73;;;4.73;;
9166;SDS011;4618;48.818;9.088;2023-04-20T01:18:52;5.27;;;4.77;;
9166;SDS011;4618;48.818;9.088;2023-04-20T01:21:18;5.70;;;4.47;;
9166;SDS011;4618;48.818;9.088;2023-04-20T01:23:46;6.63;;;5.20;;
9166;SDS011;4618;48.818;9.088;2023-04-20T01:26:13;6.13;;;5.23;;
9166;SDS011;4618;48.818;9.088;2023-04-20T01:28:39;6.63;;;5.40;;
9166;SDS011;4618;48.818;9.088;2023-04-20T01:31:06;8.17;;;5.13;;
9166;SDS011;4618;48.818;9.088;2023-04-20T01:33:32;5.10;;;4.60;;
9166;SDS011;4618;48.818;9.088;2023-04-20T01:35:58;7.63;;;4.73;;
9166;SDS011;4618;48.818;9.088;2023-04-20T01:38:25;4.67;;;4.17;;
9166;SDS011;4618;48.818;9.088;2023-04-20T01:40:51;6.77;;;5.17;;
9166;SDS011;4618;48.818;9.088;2023-04-20T01:43:18;7.23;;;4.90;;
9166;SDS011;4618;48.818;9.088;2023-04-20T01:45:44;8.60;;;5.20;;
9166;SDS011;4618;48.818;9.088;2023-04-20T01:48:10;5.50;;;5.00;;
9166;SDS011;4618;48.818;9.088;2023-04-20T01:50:36;6.47;;;4.80;;
9166;SDS011;4618;48.818;9.088;2023-04-20T01:53:02;6.63;;;5.83;;
9166;SDS011;4618;48.818;9.088;2023-04-20T01:55:28;7.67;;;5.57;;
9166;SDS011;4618;48.818;9.088;2023-04-20T01:57:54;6.93;;;5.03;;
9166;SDS011;4618;48.818;9.088;2023-04-20T02:00:20;5.43;;;4.93;;
9166;SDS011;4618;48.818;9.088;2023-04-20T02:02:46;7.00;;;5.80;;
9166;SDS011;4618;48.818;9.088;2023-04-20T02:05:12;6.10;;;5.50;;
9166;SDS011;4618;48.818;9.088;2023-04-20T02:07:38;7.30;;;5.47;;
9166;SDS011;4618;48.818;9.088;2023-04-20T02:10:04;7.47;;;5.90;;
9166;SDS011;4618;48.818;9.088;2023-04-20T02:12:30;6.33;;;5.70;;
9166;SDS011;4618;48.818;9.088;2023-04-20T02:14:56;6.47;;;5.77;;
9166;SDS011;4618;48.818;9.088;2023-04-20T02:17:22;6.63;;;5.80;;
9166;SDS011;4618;48.818;9.088;2023-04-20T02:19:48;7.10;;;6.37;;
9166;SDS011;4618;48.818;9.088;2023-04-20T02:22:14;7.10;;;6.30;;
9166;SDS011;4618;48.818;9.088;2023-04-20T02:24:40;7.53;;;6.77;;
9166;SDS011;4618;48.818;9.088;2023-04-20T02:27:08;7.40;;;6.57;;
9166;SDS011;4618;48.818;9.088;2023-04-20T02:29:34;6.73;;;6.03;;
9166;SDS011;4618;48.818;9.088;2023-04-20T02:32:00;10.23;;;6.30;;
9166;SDS011;4618;48.818;9.088;2023-04-20T02:34:26;8.30;;;6.17;;
9166;SDS011;4618;48.818;9.088;2023-04-20T02:36:52;6.73;;;5.70;;
9166;SDS011;4618;48.818;9.088;2023-04-20T02:39:17;6.50;;;5.90;;
9166;SDS011;4618;48.818;9.088;2023-04-20T02:41:44;6.17;;;5.43;;
9166;SDS011;4618;48.818;9.088;2023-04-20T02:44:10;7.13;;;5.93;;
9166;SDS011;4618;48.818;9.088;2023-04-20T02:46:36;7.07;;;6.37;;
9166;SDS011;4618;48.818;9.088;2023-04-20T02:49:02;7.80;;;6.97;;
9166;SDS011;4618;48.818;9.088;2023-04-20T02:51:28;7.53;;;6.73;;
9166;SDS011;4618;48.818;9.088;2023-04-20T02:53:54;8.77;;;6.60;;
9166;SDS011;4618;48.818;9.088;2023-04-20T02:56:20;7.20;;;6.50;;
9166;SDS011;4618;48.818;9.088;2023-04-20T02:58:46;8.00;;;6.27;;
9166;SDS011;4618;48.818;9.088;2023-04-20T03:01:12;9.33;;;6.60;;
9166;SDS011;4618;48.818;9.088;2023-04-20T03:03:38;8.70;;;6.70;;
9166;SDS011;4618;48.818;9.088;2023-04-20T03:06:05;9.73;;;6.93;;
9166;SDS011;4618;48.818;9.088;2023-04-20T03:08:31;8.83;;;7.83;;
9166;SDS011;4618;48.818;9.088;2023-04-20T03:10:57;9.47;;;7.87;;
9166;SDS011;4618;48.818;9.088;2023-04-20T03:13:23;10.23;;;7.57;;
9166;SDS011;4618;48.818;9.088;2023-04-20T03:15:49;8.30;;;7.27;;
9166;SDS011;4618;48.818;9.088;2023-04-20T03:18:15;8.00;;;7.13;;
9166;SDS011;4618;48.818;9.088;2023-04-20T03:20:41;12.33;;;7.57;;
9166;SDS011;4618;48.818;9.088;2023-04-20T03:23:07;9.53;;;7.50;;
9166;SDS011;4618;48.818;9.088;2023-04-20T03:25:35;8.47;;;7.07;;
9166;SDS011;4618;48.818;9.088;2023-04-20T03:28:01;11.97;;;7.50;;
9166;SDS011;4618;48.818;9.088;2023-04-20T03:30:27;9.93;;;7.17;;
9166;SDS011;4618;48.818;9.088;2023-04-20T03:32:53;9.60;;;6.80;;
9166;SDS011;4618;48.818;9.088;2023-04-20T03:35:19;8.37;;;7.50;;
9166;SDS011;4618;48.818;9.088;2023-04-20T03:37:45;8.73;;;6.90;;
9166;SDS011;4618;48.818;9.088;2023-04-20T03:40:11;8.80;;;7.10;;
9166;SDS011;4618;48.818;9.088;2023-04-20T03:42:37;8.77;;;7.47;;
9166;SDS011;4618;48.818;9.088;2023-04-20T03:45:04;10.43;;;7.60;;
9166;SDS011;4618;48.818;9.088;2023-04-20T03:47:30;9.47;;;7.50;;
9166;SDS011;4618;48.818;9.088;2023-04-20T03:49:57;10.87;;;7.60;;
9166;SDS011;4618;48.818;9.088;2023-04-20T03:52:23;10.13;;;8.37;;
9166;SDS011;4618;48.818;9.088;2023-04-20T03:54:49;8.63;;;7.10;;
9166;SDS011;4618;48.818;9.088;2023-04-20T03:57:15;9.13;;;7.70;;
9166;SDS011;4618;48.818;9.088;2023-04-20T03:59:41;11.00;;;7.70;;
9166;SDS011;4618;48.818;9.088;2023-04-20T04:02:07;8.70;;;7.07;;
9166;SDS011;4618;48.818;9.088;2023-04-20T04:04:34;11.00;;;8.63;;
9166;SDS011;4618;48.818;9.088;2023-04-20T04:07:00;9.57;;;8.57;;
9166;SDS011;4618;48.818;9.088;2023-04-20T04:09:26;14.90;;;9.83;;
9166;SDS011;4618;48.818;9.088;2023-04-20T04:11:52;11.87;;;9.23;;
9166;SDS011;4618;48.818;9.088;2023-04-20T04:14:18;11.17;;;9.50;;
9166;SDS011;4618;48.818;9.088;2023-04-20T04:16:44;12.23;;;9.90;;
9166;SDS011;4618;48.818;9.088;2023-04-20T04:19:10;14.00;;;10.40;;
9166;SDS011;4618;48.818;9.088;2023-04-20T04:21:36;12.13;;;10.57;;
9166;SDS011;4618;48.818;9.088;2023-04-20T04:24:02;13.37;;;10.00;;
9166;SDS011;4618;48.818;9.088;2023-04-20T04:26:28;10.97;;;9.80;;
9166;SDS011;4618;48.818;9.088;2023-04-20T04:28:56;11.97;;;9.30;;
9166;SDS011;4618;48.818;9.088;2023-04-20T04:31:22;11.33;;;9.47;;
9166;SDS011;4618;48.818;9.088;2023-04-20T04:33:48;11.03;;;9.60;;
9166;SDS011;4618;48.818;9.088;2023-04-20T04:36:14;14.07;;;10.20;;
9166;SDS011;4618;48.818;9.088;2023-04-20T04:38:41;13.33;;;11.40;;
9166;SDS011;4618;48.818;9.088;2023-04-20T04:41:11;13.53;;;11.63;;
9166;SDS011;4618;48.818;9.088;2023-04-20T04:43:37;16.23;;;12.17;;
9166;SDS011;4618;48.818;9.088;2023-04-20T04:46:05;12.43;;;10.77;;
9166;SDS011;4618;48.818;9.088;2023-04-20T04:48:32;17.10;;;11.83;;
9166;SDS011;4618;48.818;9.088;2023-04-20T04:50:59;13.30;;;11.10;;
9166;SDS011;4618;48.818;9.088;2023-04-20T04:53:25;18.93;;;11.63;;
9166;SDS011;4618;48.818;9.088;2023-04-20T04:55:51;12.90;;;11.33;;
9166;SDS011;4618;48.818;9.088;2023-04-20T04:58:17;16.17;;;12.37;;
9166;SDS011;4618;48.818;9.088;2023-04-20T05:00:43;14.33;;;11.67;;
9166;SDS011;4618;48.818;9.088;2023-04-20T05:03:09;13.57;;;12.03;;
9166;SDS011;4618;48.818;9.088;2023-04-20T05:05:35;15.10;;;11.70;;
9166;SDS011;4618;48.818;9.088;2023-04-20T05:08:01;14.43;;;11.50;;
9166;SDS011;4618;48.818;9.088;2023-04-20T05:10:27;13.63;;;11.67;;
9166;SDS011;4618;48.818;9.088;2023-04-20T05:12:53;14.63;;;11.17;;
9166;SDS011;4618;48.818;9.088;2023-04-20T05:15:19;12.13;;;10.87;;
9166;SDS011;4618;48.818;9.088;2023-04-20T05:17:45;13.70;;;11.97;;
9166;SDS011;4618;48.818;9.088;2023-04-20T05:20:13;13.17;;;10.70;;
9166;SDS011;4618;48.818;9.088;2023-04-20T05:22:39;14.93;;;10.97;;
9166;SDS011;4618;48.818;9.088;2023-04-20T05:25:05;13.60;;;10.83;;
9166;SDS011;4618;48.818;9.088;2023-04-20T05:27:32;11.70;;;10.50;;
9166;SDS011;4618;48.818;9.088;2023-04-20T05:29:58;14.70;;;10.87;;
9166;SDS011;4618;48.818;9.088;2023-04-20T05:32:24;11.53;;;10.27;;
9166;SDS011;4618;48.818;9.088;2023-04-20T05:34:49;16.87;;;10.60;;
9166;SDS011;4618;48.818;9.088;2023-04-20T05:37:15;11.93;;;10.20;;
9166;SDS011;4618;48.818;9.088;2023-04-20T05:39:41;13.83;;;10.30;;
9166;SDS011;4618;48.818;9.088;2023-04-20T05:42:07;11.83;;;9.97;;
9166;SDS011;4618;48.818;9.088;2023-04-20T05:44:33;11.77;;;9.83;;
9166;SDS011;4618;48.818;9.088;2023-04-20T05:47:00;10.73;;;9.63;;
9166;SDS011;4618;48.818;9.088;2023-04-20T05:49:30;12.67;;;10.67;;
9166;SDS011;4618;48.818;9.088;2023-04-20T05:51:56;14.50;;;11.07;;
9166;SDS011;4618;48.818;9.088;2023-04-20T05:54:22;11.47;;;10.27;;
9166;SDS011;4618;48.818;9.088;2023-04-20T05:56:48;14.43;;;9.90;;
9166;SDS011;4618;48.818;9.088;2023-04-20T05:59:14;12.57;;;10.13;;
9166;SDS011;4618;48.818;9.088;2023-04-20T06:01:41;12.10;;;9.17;;
9166;SDS011;4618;48.818;9.088;2023-04-20T06:04:07;10.70;;;9.60;;
9166;SDS011;4618;48.818;9.088;2023-04-20T06:06:33;12.73;;;10.13;;
9166;SDS011;4618;48.818;9.088;2023-04-20T06:08:59;12.67;;;10.00;;
9166;SDS011;4618;48.818;9.088;2023-04-20T06:11:25;10.63;;;9.20;;
9166;SDS011;4618;48.818;9.088;2023-04-20T06:13:51;10.50;;;9.33;;
9166;SDS011;4618;48.818;9.088;2023-04-20T06:16:17;10.90;;;9.33;;
9166;SDS011;4618;48.818;9.088;2023-04-20T06:18:43;14.20;;;9.17;;
9166;SDS011;4618;48.818;9.088;2023-04-20T06:21:09;11.43;;;9.50;;
9166;SDS011;4618;48.818;9.088;2023-04-20T06:23:35;10.13;;;8.80;;
9166;SDS011;4618;48.818;9.088;2023-04-20T06:26:01;12.30;;;9.03;;
9166;SDS011;4618;48.818;9.088;2023-04-20T06:28:28;10.67;;;8.90;;
9166;SDS011;4618;48.818;9.088;2023-04-20T06:30:54;11.80;;;8.83;;
9166;SDS011;4618;48.818;9.088;2023-04-20T06:33:20;10.53;;;8.60;;
9166;SDS011;4618;48.818;9.088;2023-04-20T06:35:46;9.63;;;8.07;;
9166;SDS011;4618;48.818;9.088;2023-04-20T06:38:12;10.57;;;8.83;;
9166;SDS011;4618;48.818;9.088;2023-04-20T06:40:38;10.20;;;8.63;;
9166;SDS011;4618;48.818;9.088;2023-04-20T06:43:03;9.60;;;8.23;;
9166;SDS011;4618;48.818;9.088;2023-04-20T06:45:30;10.10;;;8.43;;
9166;SDS011;4618;48.818;9.088;2023-04-20T06:47:56;10.23;;;8.00;;
9166;SDS011;4618;48.818;9.088;2023-04-20T06:50:22;14.97;;;8.00;;
9166;SDS011;4618;48.818;9.088;2023-04-20T06:52:48;12.23;;;8.57;;
9166;SDS011;4618;48.818;9.088;2023-04-20T06:55:14;9.17;;;8.10;;
9166;SDS011;4618;48.818;9.088;2023-04-20T06:57:40;9.10;;;8.17;;
9166;SDS011;4618;48.818;9.088;2023-04-20T07:00:08;12.20;;;8.40;;
9166;SDS011;4618;48.818;9.088;2023-04-20T07:03:07;9.97;;;8.17;;
9166;SDS011;4618;48.818;9.088;2023-04-20T07:05:26;11.63;;;8.27;;
9166;SDS011;4618;48.818;9.088;2023-04-20T07:07:52;12.27;;;7.80;;
9166;SDS011;4618;48.818;9.088;2023-04-20T07:10:18;8.97;;;8.07;;
9166;SDS011;4618;48.818;9.088;2023-04-20T07:12:44;9.70;;;8.07;;
9166;SDS011;4618;48.818;9.088;2023-04-20T07:15:10;8.80;;;7.50;;
9166;SDS011;4618;48.818;9.088;2023-04-20T07:17:36;8.50;;;7.27;;
9166;SDS011;4618;48.818;9.088;2023-04-20T07:20:02;7.90;;;7.17;;
9166;SDS011;4618;48.818;9.088;2023-04-20T07:22:35;9.40;;;7.50;;
9166;SDS011;4618;48.818;9.088;2023-04-20T07:25:05;10.60;;;7.10;;
9166;SDS011;4618;48.818;9.088;2023-04-20T07:27:35;10.13;;;7.63;;
9166;SDS011;4618;48.818;9.088;2023-04-20T07:30:03;9.80;;;6.67;;
9166;SDS011;4618;48.818;9.088;2023-04-20T07:32:31;8.10;;;7.27;;
9166;SDS011;4618;48.818;9.088;2023-04-20T07:35:00;8.60;;;7.17;;
9166;SDS011;4618;48.818;9.088;2023-04-20T07:37:26;7.63;;;6.83;;
9166;SDS011;4618;48.818;9.088;2023-04-20T07:39:51;8.50;;;6.90;;
9166;SDS011;4618;48.818;9.088;2023-04-20T07:42:17;9.57;;;6.40;;
9166;SDS011;4618;48.818;9.088;2023-04-20T07:44:46;8.57;;;6.93;;
9166;SDS011;4618;48.818;9.088;2023-04-20T07:47:12;10.07;;;6.90;;
9166;SDS011;4618;48.818;9.088;2023-04-20T07:49:37;8.80;;;6.63;;
9166;SDS011;4618;48.818;9.088;2023-04-20T07:52:04;7.17;;;6.03;;
9166;SDS011;4618;48.818;9.088;2023-04-20T07:54:30;10.47;;;6.20;;
9166;SDS011;4618;48.818;9.088;2023-04-20T07:56:56;7.07;;;6.47;;
9166;SDS011;4618;48.818;9.088;2023-04-20T07:59:22;7.17;;;5.87;;
9166;SDS011;4618;48.818;9.088;2023-04-20T08:01:48;6.97;;;6.13;;
9166;SDS011;4618;48.818;9.088;2023-04-20T08:04:14;8.27;;;6.03;;
9166;SDS011;4618;48.818;9.088;2023-04-20T08:06:40;8.33;;;6.57;;
9166;SDS011;4618;48.818;9.088;2023-04-20T08:09:06;6.60;;;5.97;;
9166;SDS011;4618;48.818;9.088;2023-04-20T08:11:31;8.97;;;6.80;;
9166;SDS011;4618;48.818;9.088;2023-04-20T08:13:57;8.73;;;6.10;;
9166;SDS011;4618;48.818;9.088;2023-04-20T08:16:23;7.03;;;6.43;;
9166;SDS011;4618;48.818;9.088;2023-04-20T08:18:48;6.73;;;5.70;;
9166;SDS011;4618;48.818;9.088;2023-04-20T08:21:14;8.13;;;5.87;;
9166;SDS011;4618;48.818;9.088;2023-04-20T08:23:39;7.70;;;6.90;;
9166;SDS011;4618;48.818;9.088;2023-04-20T08:28:33;8.80;;;6.53;;
9166;SDS011;4618;48.818;9.088;2023-04-20T08:30:59;8.23;;;6.23;;
9166;SDS011;4618;48.818;9.088;2023-04-20T08:33:24;7.20;;;6.23;;
9166;SDS011;4618;48.818;9.088;2023-04-20T08:35:50;8.20;;;6.20;;
9166;SDS011;4618;48.818;9.088;2023-04-20T08:38:16;8.60;;;6.80;;
9166;SDS011;4618;48.818;9.088;2023-04-20T08:40:42;7.60;;;5.93;;
9166;SDS011;4618;48.818;9.088;2023-04-20T08:43:08;7.27;;;6.23;;
9166;SDS011;4618;48.818;9.088;2023-04-20T08:45:33;7.83;;;6.33;;
9166;SDS011;4618;48.818;9.088;2023-04-20T08:47:59;10.07;;;6.87;;
9166;SDS011;4618;48.818;9.088;2023-04-20T08:50:32;10.70;;;7.10;;
9166;SDS011;4618;48.818;9.088;2023-04-20T08:52:58;8.80;;;7.23;;
9166;SDS011;4618;48.818;9.088;2023-04-20T08:55:23;8.40;;;7.60;;
9166;SDS011;4618;48.818;9.088;2023-04-20T08:57:49;10.00;;;7.87;;
9166;SDS011;4618;48.818;9.088;2023-04-20T09:00:15;11.27;;;7.80;;
9166;SDS011;4618;48.818;9.088;2023-04-20T09:02:48;9.23;;;7.73;;
9166;SDS011;4618;48.818;9.088;2023-04-20T09:05:24;10.47;;;8.30;;
9166;SDS011;4618;48.818;9.088;2023-04-20T09:07:52;8.37;;;7.57;;
9166;SDS011;4618;48.818;9.088;2023-04-20T09:10:19;9.80;;;8.03;;
9166;SDS011;4618;48.818;9.088;2023-04-20T09:12:48;8.77;;;7.87;;
9166;SDS011;4618;48.818;9.088;2023-04-20T09:15:26;9.80;;;7.80;;
9166;SDS011;4618;48.818;9.088;2023-04-20T09:17:55;8.13;;;7.23;;
9166;SDS011;4618;48.818;9.088;2023-04-20T09:20:28;9.07;;;7.97;;
9166;SDS011;4618;48.818;9.088;2023-04-20T09:22:55;8.63;;;7.63;;
9166;SDS011;4618;48.818;9.088;2023-04-20T09:25:21;9.30;;;7.33;;
9166;SDS011;4618;48.818;9.088;2023-04-20T09:27:57;7.27;;;6.57;;
9166;SDS011;4618;48.818;9.088;2023-04-20T09:30:23;7.10;;;6.40;;
9166;SDS011;4618;48.818;9.088;2023-04-20T09:32:59;7.77;;;6.97;;
9166;SDS011;4618;48.818;9.088;2023-04-20T09:35:28;7.93;;;7.13;;
9166;SDS011;4618;48.818;9.088;2023-04-20T09:37:54;8.60;;;7.07;;
9166;SDS011;4618;48.818;9.088;2023-04-20T09:40:19;8.40;;;7.23;;
9166;SDS011;4618;48.818;9.088;2023-04-20T09:42:48;10.77;;;7.27;;
9166;SDS011;4618;48.818;9.088;2023-04-20T09:45:15;8.60;;;7.73;;
9166;SDS011;4618;48.818;9.088;2023-04-20T09:47:41;8.90;;;8.00;;
9166;SDS011;4618;48.818;9.088;2023-04-20T09:50:11;9.83;;;7.30;;
9166;SDS011;4618;48.818;9.088;2023-04-20T09:52:37;8.03;;;7.30;;
9166;SDS011;4618;48.818;9.088;2023-04-20T09:55:03;9.27;;;7.17;;
9166;SDS011;4618;48.818;9.088;2023-04-20T09:57:32;8.97;;;7.17;;
9166;SDS011;4618;48.818;9.088;2023-04-20T09:59:59;8.20;;;6.80;;
9166;SDS011;4618;48.818;9.088;2023-04-20T10:02:25;7.03;;;6.43;;
9166;SDS011;4618;48.818;9.088;2023-04-20T10:04:54;9.40;;;7.03;;
9166;SDS011;4618;48.818;9.088;2023-04-20T10:07:27;7.83;;;7.03;;
9166;SDS011;4618;48.818;9.088;2023-04-20T10:10:11;7.93;;;7.13;;
9166;SDS011;4618;48.818;9.088;2023-04-20T10:12:52;8.60;;;7.07;;
9166;SDS011;4618;48.818;9.088;2023-04-20T10:15:19;7.27;;;6.57;;
9166;SDS011;4618;48.818;9.088;2023-04-20T10:17:48;7.80;;;7.00;;
9166;SDS011;4618;48.818;9.088;2023-04-20T10:20:24;9.90;;;7.13;;
9166;SDS011;4618;48.818;9.088;2023-04-20T10:22:52;9.33;;;7.50;;
9166;SDS011;4618;48.818;9.088;2023-04-20T10:25:21;7.83;;;7.13;;
9166;SDS011;4618;48.818;9.088;2023-04-20T10:27:55;7.67;;;6.77;;
9166;SDS011;4618;48.818;9.088;2023-04-20T10:30:21;7.97;;;7.13;;
9166;SDS011;4618;48.818;9.088;2023-04-20T10:32:47;10.53;;;7.13;;
9166;SDS011;4618;48.818;9.088;2023-04-20T10:35:13;7.93;;;6.77;;
9166;SDS011;4618;48.818;9.088;2023-04-20T10:37:46;8.37;;;7.37;;
9166;SDS011;4618;48.818;9.088;2023-04-20T10:40:13;9.87;;;7.23;;
9166;SDS011;4618;48.818;9.088;2023-04-20T10:42:42;10.67;;;8.00;;
9166;SDS011;4618;48.818;9.088;2023-04-20T10:45:09;8.73;;;7.27;;
9166;SDS011;4618;48.818;9.088;2023-04-20T10:47:35;9.07;;;7.70;;
9166;SDS011;4618;48.818;9.088;2023-04-20T10:50:08;8.47;;;7.67;;
9166;SDS011;4618;48.818;9.088;2023-04-20T10:52:35;8.40;;;7.60;;
9166;SDS011;4618;48.818;9.088;2023-04-20T10:55:03;10.63;;;7.47;;
9166;SDS011;4618;48.818;9.088;2023-04-20T10:57:30;8.97;;;8.07;;
9166;SDS011;4618;48.818;9.088;2023-04-20T10:59:56;8.77;;;7.93;;
9166;SDS011;4618;48.818;9.088;2023-04-20T11:02:22;9.73;;;7.73;;
9166;SDS011;4618;48.818;9.088;2023-04-20T11:04:48;10.17;;;7.90;;
9166;SDS011;4618;48.818;9.088;2023-04-20T11:07:13;7.97;;;7.17;;
9166;SDS011;4618;48.818;9.088;2023-04-20T11:09:39;8.60;;;6.77;;
9166;SDS011;4618;48.818;9.088;2023-04-20T11:12:07;9.07;;;7.10;;
9166;SDS011;4618;48.818;9.088;2023-04-20T11:14:49;8.30;;;6.93;;
9166;SDS011;4618;48.818;9.088;2023-04-20T11:17:30;10.70;;;7.63;;
9166;SDS011;4618;48.818;9.088;2023-04-20T11:20:18;6.63;;;6.03;;
9166;SDS011;4618;48.818;9.088;2023-04-20T11:22:43;6.83;;;6.23;;
9166;SDS011;4618;48.818;9.088;2023-04-20T11:25:19;7.50;;;6.80;;
9166;SDS011;4618;48.818;9.088;2023-04-20T11:27:45;7.13;;;6.43;;
9166;SDS011;4618;48.818;9.088;2023-04-20T11:30:11;7.23;;;6.53;;
9166;SDS011;4618;48.818;9.088;2023-04-20T11:32:36;7.53;;;6.83;;
9166;SDS011;4618;48.818;9.088;2023-04-20T11:35:03;7.23;;;6.27;;
9166;SDS011;4618;48.818;9.088;2023-04-20T11:38:08;7.90;;;7.13;;
9166;SDS011;4618;48.818;9.088;2023-04-20T11:40:26;9.17;;;8.27;;
9166;SDS011;4618;48.818;9.088;2023-04-20T11:42:52;11.07;;;8.10;;
9166;SDS011;4618;48.818;9.088;2023-04-20T11:45:18;8.40;;;7.60;;
9166;SDS011;4618;48.818;9.088;2023-04-20T11:47:43;7.80;;;7.10;;
9166;SDS011;4618;48.818;9.088;2023-04-20T11:50:09;9.90;;;8.40;;
9166;SDS011;4618;48.818;9.088;2023-04-20T11:52:36;11.00;;;8.10;;
9166;SDS011;4618;48.818;9.088;2023-04-20T11:55:01;8.97;;;8.17;;
9166;SDS011;4618;48.818;9.088;2023-04-20T11:57:27;8.73;;;7.93;;
9166;SDS011;4618;48.818;9.088;2023-04-20T11:59:53;9.13;;;8.23;;
9166;SDS011;4618;48.818;9.088;2023-04-20T12:02:18;8.37;;;7.57;;
9166;SDS011;4618;48.818;9.088;2023-04-20T12:04:44;8.40;;;7.63;;
9166;SDS011;4618;48.818;9.088;2023-04-20T12:07:10;9.20;;;8.30;;
9166;SDS011;4618;48.818;9.088;2023-04-20T12:09:35;12.17;;;8.67;;
9166;SDS011;4618;48.818;9.088;2023-04-20T12:12:05;9.80;;;8.80;;
9166;SDS011;4618;48.818;9.088;2023-04-20T12:14:32;10.17;;;9.27;;
9166;SDS011;4618;48.818;9.088;2023-04-20T12:16:58;12.67;;;10.60;;
9166;SDS011;4618;48.818;9.088;2023-04-20T12:19:24;11.10;;;8.60;;
9166;SDS011;4618;48.818;9.088;2023-04-20T12:21:50;8.90;;;7.77;;
9166;SDS011;4618;48.818;9.088;2023-04-20T12:24:16;10.53;;;8.43;;
9166;SDS011;4618;48.818;9.088;2023-04-20T12:26:41;9.57;;;8.60;;
9166;SDS011;4618;48.818;9.088;2023-04-20T12:29:07;9.80;;;8.90;;
9166;SDS011;4618;48.818;9.088;2023-04-20T12:31:32;9.87;;;8.87;;
9166;SDS011;4618;48.818;9.088;2023-04-20T12:33:59;10.13;;;9.07;;
9166;SDS011;4618;48.818;9.088;2023-04-20T12:36:25;10.43;;;8.47;;
9166;SDS011;4618;48.818;9.088;2023-04-20T12:38:52;10.17;;;9.17;;
9166;SDS011;4618;48.818;9.088;2023-04-20T12:41:19;11.00;;;8.83;;
9166;SDS011;4618;48.818;9.088;2023-04-20T12:43:47;10.13;;;9.00;;
9166;SDS011;4618;48.818;9.088;2023-04-20T12:46:13;9.53;;;8.63;;
9166;SDS011;4618;48.818;9.088;2023-04-20T12:48:38;10.10;;;8.87;;
9166;SDS011;4618;48.818;9.088;2023-04-20T12:51:05;10.43;;;9.47;;
9166;SDS011;4618;48.818;9.088;2023-04-20T12:53:31;10.63;;;9.63;;
9166;SDS011;4618;48.818;9.088;2023-04-20T12:55:56;11.20;;;10.10;;
9166;SDS011;4618;48.818;9.088;2023-04-20T12:58:22;9.23;;;8.43;;
9166;SDS011;4618;48.818;9.088;2023-04-20T13:00:47;9.27;;;8.47;;
9166;SDS011;4618;48.818;9.088;2023-04-20T13:03:13;10.47;;;9.47;;
9166;SDS011;4618;48.818;9.088;2023-04-20T13:05:39;9.80;;;8.90;;
9166;SDS011;4618;48.818;9.088;2023-04-20T13:08:04;9.63;;;8.73;;
9166;SDS011;4618;48.818;9.088;2023-04-20T13:10:30;9.67;;;8.77;;
9166;SDS011;4618;48.818;9.088;2023-04-20T13:12:56;10.57;;;9.57;;
9166;SDS011;4618;48.818;9.088;2023-04-20T13:15:21;10.50;;;9.50;;
9166;SDS011;4618;48.818;9.088;2023-04-20T13:17:47;10.83;;;9.63;;
9166;SDS011;4618;48.818;9.088;2023-04-20T13:20:13;12.80;;;10.37;;
9166;SDS011;4618;48.818;9.088;2023-04-20T13:22:38;10.90;;;9.60;;
9166;SDS011;4618;48.818;9.088;2023-04-20T13:25:04;10.07;;;9.07;;
9166;SDS011;4618;48.818;9.088;2023-04-20T13:27:31;10.13;;;9.17;;
9166;SDS011;4618;48.818;9.088;2023-04-20T13:29:56;11.17;;;9.90;;
9166;SDS011;4618;48.818;9.088;2023-04-20T13:32:23;10.70;;;9.73;;
9166;SDS011;4618;48.818;9.088;2023-04-20T13:34:50;10.57;;;9.47;;
9166;SDS011;4618;48.818;9.088;2023-04-20T13:37:16;10.17;;;9.07;;
9166;SDS011;4618;48.818;9.088;2023-04-20T13:39:42;11.53;;;9.63;;
9166;SDS011;4618;48.818;9.088;2023-04-20T13:42:07;10.80;;;9.60;;
9166;SDS011;4618;48.818;9.088;2023-04-20T13:44:33;10.47;;;9.37;;
9166;SDS011;4618;48.818;9.088;2023-04-20T13:47:00;9.27;;;8.37;;
9166;SDS011;4618;48.818;9.088;2023-04-20T13:49:25;8.87;;;7.97;;
9166;SDS011;4618;48.818;9.088;2023-04-20T13:51:51;10.30;;;9.30;;
9166;SDS011;4618;48.818;9.088;2023-04-20T13:54:17;10.60;;;9.60;;
9166;SDS011;4618;48.818;9.088;2023-04-20T13:56:42;10.37;;;9.37;;
9166;SDS011;4618;48.818;9.088;2023-04-20T13:59:08;10.67;;;9.67;;
9166;SDS011;4618;48.818;9.088;2023-04-20T14:01:33;9.93;;;8.93;;
9166;SDS011;4618;48.818;9.088;2023-04-20T14:03:59;9.87;;;8.90;;
9166;SDS011;4618;48.818;9.088;2023-04-20T14:06:28;8.77;;;7.90;;
9166;SDS011;4618;48.818;9.088;2023-04-20T14:08:55;9.93;;;8.83;;
9166;SDS011;4618;48.818;9.088;2023-04-20T14:11:20;9.47;;;8.57;;
9166;SDS011;4618;48.818;9.088;2023-04-20T14:13:46;9.43;;;8.53;;
9166;SDS011;4618;48.818;9.088;2023-04-20T14:16:11;9.83;;;8.83;;
9166;SDS011;4618;48.818;9.088;2023-04-20T14:18:38;9.93;;;8.97;;
9166;SDS011;4618;48.818;9.088;2023-04-20T14:21:04;10.07;;;9.10;;
9166;SDS011;4618;48.818;9.088;2023-04-20T14:23:30;9.43;;;8.53;;
9166;SDS011;4618;48.818;9.088;2023-04-20T14:25:56;9.60;;;8.70;;
9166;SDS011;4618;48.818;9.088;2023-04-20T14:28:21;8.80;;;8.00;;
9166;SDS011;4618;48.818;9.088;2023-04-20T14:30:47;10.43;;;9.43;;
9166;SDS011;4618;48.818;9.088;2023-04-20T14:33:15;9.80;;;8.80;;
9166;SDS011;4618;48.818;9.088;2023-04-20T14:35:40;9.90;;;8.90;;
9166;SDS011;4618;48.818;9.088;2023-04-20T14:38:06;9.77;;;8.77;;
9166;SDS011;4618;48.818;9.088;2023-04-20T14:40:32;8.70;;;7.80;;
9166;SDS011;4618;48.818;9.088;2023-04-20T14:42:58;8.77;;;7.90;;
9166;SDS011;4618;48.818;9.088;2023-04-20T14:45:23;9.23;;;7.93;;
9166;SDS011;4618;48.818;9.088;2023-04-20T14:47:52;10.00;;;8.60;;
9166;SDS011;4618;48.818;9.088;2023-04-20T14:50:19;9.43;;;8.47;;
9166;SDS011;4618;48.818;9.088;2023-04-20T14:52:45;10.17;;;9.17;;
9166;SDS011;4618;48.818;9.088;2023-04-20T14:55:11;8.90;;;8.10;;
9166;SDS011;4618;48.818;9.088;2023-04-20T14:57:36;9.90;;;8.57;;
9166;SDS011;4618;48.818;9.088;2023-04-20T15:00:03;8.87;;;8.07;;
9166;SDS011;4618;48.818;9.088;2023-04-20T15:02:29;9.23;;;8.43;;
9166;SDS011;4618;48.818;9.088;2023-04-20T15:04:56;9.13;;;8.23;;
9166;SDS011;4618;48.818;9.088;2023-04-20T15:07:22;9.23;;;8.23;;
9166;SDS011;4618;48.818;9.088;2023-04-20T15:09:47;8.53;;;7.73;;